Defne-s — TCTI5 — position and weather

sailwx.info

Track history (hours):
 
Tides and Currents Weather Stations Pressure Air Temp Water Temp Dewpoint Dewpoint Depression Visibility Wind Speed Wind Dir Waves Ship Positions

Defne-s

Last reported at 2017-May-24 13:00 UTC. Time now 2017-May-24 13:22 UTC.
Position N 51°53' E 004°18'.

Length 109 m; draft 6.7 m.

Type: Ship (hazmat cat B). MMSI: 271002639.

Date/timePositionNaut miles runAvg speedWind from/ knotsBaromVisibWave heightAir tempDewpointWater temp
2017-May-24 13:00N 51°53' E 004°18'0 0.0
2017-May-24 12:30N 51°53' E 004°18'0 0.0
2017-May-24 12:00N 51°53' E 004°18'0 0.0
2017-May-24 11:30N 51°53' E 004°18'0 0.0
2017-May-24 11:00N 51°53' E 004°18'0 0.0
2017-May-24 10:30N 51°53' E 004°18'0 0.0
2017-May-24 10:00N 51°53' E 004°18'0 0.0
2017-May-24 09:30N 51°53' E 004°18'0 0.6
2017-May-24 09:01N 51°53' E 004°18'3 6.8
2017-May-24 08:30N 51°55' E 004°14'510.6
2017-May-24 08:00N 51°58' E 004°07'510.9
2017-May-24 07:30N 51°60' E 003°59'611.4
2017-May-24 07:00N 51°60' E 003°50'4 7.8
2017-May-24 06:30N 51°56' E 003°47'0 0.1
2017-May-24 05:59N 51°56' E 003°47'0 0.1
2017-May-24 05:29N 51°56' E 003°47'0 0.2
2017-May-24 04:50N 51°56' E 003°47'0 0.1
2017-May-24 04:26N 51°56' E 003°47'0 0.1
2017-May-24 03:59N 51°56' E 003°47'0 0.0
2017-May-24 03:25N 51°56' E 003°47'0 0.0
2017-May-24 02:59N 51°56' E 003°47'0 0.0
2017-May-24 02:20N 51°56' E 003°47'0 0.0
2017-May-24 01:53N 51°56' E 003°47'0 0.0
2017-May-24 01:29N 51°56' E 003°47'0 0.0
2017-May-24 00:59N 51°56' E 003°47'0 0.1
2017-May-24 00:29N 51°56' E 003°47'0 0.0
2017-May-23 23:56N 51°56' E 003°47'0 0.0
2017-May-23 23:29N 51°56' E 003°47'0 0.0
2017-May-23 22:56N 51°56' E 003°47'0 0.2
2017-May-23 22:25N 51°56' E 003°47'0 0.1
2017-May-23 21:59N 51°56' E 003°47'0 0.1
2017-May-23 21:29N 51°56' E 003°47'0 0.1
2017-May-23 20:59N 51°56' E 003°47'0 0.0
2017-May-23 20:29N 51°56' E 003°47'0 0.1
2017-May-23 19:59N 51°56' E 003°47'0 0.0
2017-May-23 19:28N 51°56' E 003°47'0 0.0
2017-May-23 18:56N 51°56' E 003°47'0 0.0
2017-May-23 18:29N 51°56' E 003°47'0 0.0
2017-May-23 18:00N 51°56' E 003°47'0 0.0
2017-May-23 17:30N 51°56' E 003°47'0 0.5
2017-May-23 17:01N 51°56' E 003°47'5 9.4
2017-May-23 16:31N 51°57' E 003°39'612.3
2017-May-23 16:00N 51°56' E 003°29'612.4
2017-May-23 15:30N 51°55' E 003°19'812.1
2017-May-23 14:53N 51°53' E 003°08'3912.8
2017-May-23 11:47N 51°30' E 002°15'414.1
2017-May-23 11:30N 51°27' E 002°12'713.6
2017-May-23 11:00N 51°21' E 002°08'612.9
2017-May-23 10:31N 51°14' E 002°05'714.8
2017-May-23 10:00N 51°11' E 001°55'815.1
2017-May-23 09:31N 51°07' E 001°45'815.5
2017-May-23 09:01N 51°01' E 001°36'815.4
2017-May-23 08:31N 50°55' E 001°30'814.8
2017-May-23 07:59N 50°47' E 001°26'4313.1
2017-May-23 04:42N 50°24' E 000°29'313.8
2017-May-23 04:30N 50°24' E 000°25'713.5
2017-May-23 04:00N 50°22' E 000°14'613.2
2017-May-23 03:31N 50°20' E 000°05'612.7
2017-May-23 03:01N 50°18' W 000°05'612.3
2017-May-23 02:31N 50°16' W 000°14'612.0
2017-May-23 02:01N 50°15' W 000°23'611.6
2017-May-23 01:31N 50°13' W 000°32'611.4
2017-May-23 01:00N 50°11' W 000°40'510.9
2017-May-23 00:31N 50°10' W 000°49'610.5
2017-May-22 23:57N 50°08' W 000°57'510.2
2017-May-22 23:28N 50°07' W 001°05'510.2
2017-May-22 22:59N 50°06' W 001°12'510.4
2017-May-22 22:29N 50°04' W 001°20'510.4
2017-May-22 21:59N 50°03' W 001°28'610.9
2017-May-22 21:27N 50°02' W 001°36'511.6
2017-May-22 21:00N 50°00' W 001°44'612.1
2017-May-22 20:30N 49°58' W 001°53'612.6
2017-May-22 20:01N 49°56' W 002°02'813.7
2017-May-22 19:27N 49°54' W 002°14'1414.0
2017-May-22 18:29N 49°51' W 002°34'714.3
2017-May-22 18:00N 49°49' W 002°44'714.3
2017-May-22 17:30N 49°46' W 002°55'714.3
2017-May-22 17:00N 49°43' W 003°04'714.3
2017-May-22 16:30N 49°39' W 003°14'714.2
2017-May-22 16:00N 49°36' W 003°23'714.1
2017-May-22 15:30N 49°33' W 003°33'1114.2
2017-May-22 14:45N 49°27' W 003°47'1414.0
2017-May-22 13:47N 49°20' W 004°05'613.9
2017-May-22 13:23N 49°18' W 004°13'514.1
2017-May-22 13:00N 49°15' W 004°20'713.9
2017-May-22 12:30N 49°11' W 004°29'713.8
2017-May-22 12:00N 49°08' W 004°38'913.7
2017-May-22 11:20N 49°04' W 004°51'813.4
2017-May-22 10:45N 48°60' W 005°01'513.3
2017-May-22 10:24N 48°57' W 005°07'513.4
2017-May-22 10:00N 48°55' W 005°14'612.9
2017-May-22 09:30N 48°52' W 005°22'712.9
2017-May-22 08:56N 48°48' W 005°32'512.1
2017-May-22 08:29N 48°44' W 005°38'4710.9
2017-May-22 04:11N 47°59' W 005°20'212.0
2017-May-22 04:00N 47°57' W 005°19'611.9
2017-May-22 03:30N 47°53' W 005°12'612.1
2017-May-22 03:00N 47°50' W 005°04'612.4
2017-May-22 02:30N 47°48' W 004°55'612.6
2017-May-22 02:00N 47°45' W 004°47'612.5
2017-May-22 01:30N 47°42' W 004°39'612.8
2017-May-22 01:00N 47°39' W 004°31'712.9
2017-May-22 00:30N 47°35' W 004°22'612.8
2017-May-22 00:00N 47°32' W 004°14'612.7
2017-May-21 23:30N 47°30' W 004°05'612.9
2017-May-21 23:01N 47°27' W 003°57'612.7
2017-May-21 22:30N 47°24' W 003°49'612.5
2017-May-21 22:00N 47°21' W 003°40'612.5
2017-May-21 21:30N 47°18' W 003°32'612.5
2017-May-21 21:00N 47°15' W 003°24'612.6
2017-May-21 20:30N 47°12' W 003°16'612.6
2017-May-21 20:00N 47°09' W 003°08'612.4
2017-May-21 19:30N 47°07' W 002°59'612.6
2017-May-21 19:00N 47°04' W 002°51'612.8
2017-May-21 18:30N 47°01' W 002°43'611.8
2017-May-21 18:00N 47°02' W 002°34'612.6
2017-May-21 17:30N 47°05' W 002°26'611.6
2017-May-21 17:00N 47°09' W 002°20'612.6
2017-May-21 16:31N 47°14' W 002°15'612.9
2017-May-21 16:00N 47°18' W 002°08'0 0.8
2017-May-21 15:30N 47°18' W 002°07'0 0.0
2017-May-21 15:00N 47°18' W 002°07'0 0.0
2017-May-21 14:30N 47°18' W 002°07'0 0.0
2017-May-21 13:30N 47°18' W 002°07'0 0.0
2017-May-21 13:00N 47°18' W 002°07'0 0.0
2017-May-21 12:30N 47°18' W 002°07'0 0.0
2017-May-21 11:54N 47°18' W 002°07'0 0.0
2017-May-21 11:24N 47°18' W 002°07'0 0.0
2017-May-21 11:00N 47°18' W 002°07'0 0.0
2017-May-21 10:30N 47°18' W 002°07'0 0.0
2017-May-21 09:57N 47°18' W 002°07'0 0.0
2017-May-21 09:30N 47°18' W 002°07'0 0.0
2017-May-21 09:00N 47°18' W 002°07'0 0.0
2017-May-21 08:27N 47°18' W 002°07'0 0.0
2017-May-21 08:00N 47°18' W 002°07'0 0.0
2017-May-21 07:30N 47°18' W 002°07'0 0.0
2017-May-21 07:00N 47°18' W 002°07'0 0.0
2017-May-21 06:30N 47°18' W 002°07'0 0.0
2017-May-21 06:00N 47°18' W 002°07'0 0.0
2017-May-21 05:30N 47°18' W 002°07'0 0.0
2017-May-21 05:00N 47°18' W 002°07'0 0.0
2017-May-21 04:30N 47°18' W 002°07'0 0.0
2017-May-21 04:00N 47°18' W 002°07'0 0.0
2017-May-21 03:30N 47°18' W 002°07'0 0.0
2017-May-21 03:00N 47°18' W 002°07'0 0.0
2017-May-21 02:30N 47°18' W 002°07'0 0.0
2017-May-21 01:57N 47°18' W 002°07'0 0.0
2017-May-21 01:30N 47°18' W 002°07'0 0.0
2017-May-21 01:00N 47°18' W 002°07'0 0.0
2017-May-21 00:30N 47°18' W 002°07'0 0.0
2017-May-21 00:00N 47°18' W 002°07'0 0.0
2017-May-20 23:30N 47°18' W 002°07'0 0.0
2017-May-20 23:00N 47°18' W 002°07'0 0.0
2017-May-20 22:30N 47°18' W 002°07'0 0.0
2017-May-20 22:00N 47°18' W 002°07'0 0.0
2017-May-20 21:30N 47°18' W 002°07'0 0.0
2017-May-20 21:00N 47°18' W 002°07'0 0.0
2017-May-20 20:30N 47°18' W 002°07'0 0.0
2017-May-20 20:00N 47°18' W 002°07'0 0.0
2017-May-20 19:30N 47°18' W 002°07'0 0.0
2017-May-20 18:57N 47°18' W 002°07'0 0.0
2017-May-20 18:30N 47°18' W 002°07'0 0.0
2017-May-20 18:00N 47°18' W 002°07'0 0.0
2017-May-20 17:27N 47°18' W 002°07'0 0.0
2017-May-20 16:57N 47°18' W 002°07'0 0.0
2017-May-20 16:30N 47°18' W 002°07'0 0.0
2017-May-20 16:00N 47°18' W 002°07'0 0.0
2017-May-20 15:30N 47°18' W 002°07'0 0.0
2017-May-20 14:57N 47°18' W 002°07'0 0.0
2017-May-20 13:57N 47°18' W 002°07'0 0.0
2017-May-20 13:30N 47°18' W 002°07'0 0.0
2017-May-20 13:00N 47°18' W 002°07'2 4.7
2017-May-20 12:30N 47°17' W 002°10'611.3
2017-May-20 12:00N 47°13' W 002°16'612.0
2017-May-20 11:30N 47°08' W 002°20'4 7.4
2017-May-20 11:00N 47°09' W 002°26'0 0.7
2017-May-20 10:23N 47°09' W 002°27'0 0.0
2017-May-20 09:57N 47°09' W 002°27'0 0.0
2017-May-20 09:29N 47°09' W 002°27'0 0.0
2017-May-20 08:59N 47°09' W 002°27'0 0.0
2017-May-20 08:30N 47°09' W 002°27'0 0.0
2017-May-20 08:00N 47°09' W 002°27'0 0.0
2017-May-20 07:30N 47°09' W 002°27'0 0.0
2017-May-20 07:00N 47°09' W 002°27'0 0.0
2017-May-20 06:30N 47°09' W 002°27'0 0.0
2017-May-20 06:00N 47°09' W 002°27'0 0.0
2017-May-20 05:30N 47°09' W 002°27'0 0.0
2017-May-20 05:00N 47°09' W 002°27'0 0.0
2017-May-20 04:30N 47°09' W 002°27'0 0.0
2017-May-20 03:59N 47°09' W 002°27'0 0.1
2017-May-20 03:26N 47°09' W 002°27'0 0.1
2017-May-20 02:59N 47°09' W 002°27'0 0.1
2017-May-20 02:29N 47°09' W 002°27'0 0.1
2017-May-20 01:59N 47°09' W 002°27'0 0.0
2017-May-20 01:29N 47°09' W 002°27'0 0.0
2017-May-20 00:59N 47°09' W 002°27'0 0.0
2017-May-20 00:29N 47°09' W 002°27'0 0.0
2017-May-19 23:59N 47°09' W 002°27'0 0.0
2017-May-19 23:29N 47°09' W 002°27'0 0.0
2017-May-19 22:59N 47°09' W 002°27'0 0.0
2017-May-19 22:29N 47°09' W 002°27'0 0.0
2017-May-19 21:56N 47°09' W 002°27'0 0.0
2017-May-19 21:26N 47°09' W 002°27'0 0.0
2017-May-19 21:00N 47°09' W 002°27'0 0.0
2017-May-19 20:29N 47°09' W 002°27'0 0.0
2017-May-19 19:59N 47°09' W 002°27'0 0.0
2017-May-19 19:27N 47°09' W 002°27'0 0.0
2017-May-19 18:57N 47°09' W 002°27'0 0.0
2017-May-19 18:26N 47°09' W 002°27'0 0.0
2017-May-19 18:00N 47°09' W 002°27'0 0.0
2017-May-19 17:30N 47°09' W 002°27'0 0.0
2017-May-19 17:00N 47°09' W 002°27'0 0.1
2017-May-19 16:30N 47°09' W 002°27'0 0.0
2017-May-19 16:00N 47°09' W 002°27'0 0.0
2017-May-19 15:30N 47°09' W 002°27'0 0.0
2017-May-19 15:00N 47°09' W 002°27'0 0.0
2017-May-19 13:48N 47°09' W 002°27'0 0.0
2017-May-19 13:30N 47°09' W 002°27'0 0.0
2017-May-19 13:00N 47°09' W 002°27'0 0.0
2017-May-19 12:30N 47°09' W 002°27'0 0.0
2017-May-19 11:51N 47°09' W 002°27'0 0.0
2017-May-19 11:30N 47°09' W 002°27'0 0.0
2017-May-19 10:51N 47°09' W 002°27'0 0.0
2017-May-19 10:29N 47°09' W 002°27'0 0.0
2017-May-19 09:54N 47°09' W 002°27'0 0.0
2017-May-19 09:24N 47°09' W 002°27'0 0.0
2017-May-19 08:54N 47°09' W 002°27'0 0.0
2017-May-19 08:21N 47°09' W 002°27'0 0.1
2017-May-19 07:59N 47°09' W 002°27'0 0.0
2017-May-19 07:26N 47°09' W 002°27'0 0.0
2017-May-19 06:57N 47°09' W 002°27'0 0.0
2017-May-19 06:29N 47°09' W 002°27'0 0.0
2017-May-19 05:57N 47°09' W 002°27'0 0.0
2017-May-19 05:20N 47°09' W 002°27'0 0.0
2017-May-19 04:57N 47°09' W 002°27'0 0.0
2017-May-19 04:27N 47°09' W 002°27'0 0.0
2017-May-19 04:00N 47°09' W 002°27'0 0.0
2017-May-19 03:29N 47°09' W 002°27'0 0.1
2017-May-19 03:00N 47°09' W 002°27'0 0.1
2017-May-19 02:29N 47°09' W 002°27'3 6.1
2017-May-19 02:00N 47°06' W 002°27'612.5
2017-May-19 01:30N 47°01' W 002°33'  
2017-May-16 15:13N 40°34' W 008°51'1512.6
2017-May-16 14:00N 40°21' W 009°02'612.7
2017-May-16 13:30N 40°16' W 009°07'612.4
2017-May-16 12:59N 40°10' W 009°11'612.3
2017-May-16 12:30N 40°05' W 009°15'612.1
2017-May-16 11:59N 39°60' W 009°19'612.5
2017-May-16 11:30N 39°55' W 009°23'612.3
2017-May-16 11:00N 39°49' W 009°27'612.6
2017-May-16 10:30N 39°44' W 009°31'612.6
2017-May-16 10:00N 39°39' W 009°36'612.5
2017-May-16 09:30N 39°33' W 009°40'612.4
2017-May-16 09:01N 39°28' W 009°43'612.6
2017-May-16 08:30N 39°21' W 009°44'613.0
2017-May-16 08:00N 39°15' W 009°47'612.9
2017-May-16 07:30N 39°09' W 009°50'612.4
2017-May-16 07:00N 39°03' W 009°52'612.7
2017-May-16 06:30N 38°57' W 009°54'613.0
2017-May-16 06:00N 38°51' W 009°56'613.0
2017-May-16 05:30N 38°44' W 009°56'713.0
2017-May-16 05:00N 38°38' W 009°55'611.4
2017-May-16 04:30N 38°37' W 009°48'612.7
2017-May-16 04:00N 38°37' W 009°40'713.4
2017-May-16 03:30N 38°38' W 009°32'612.1
2017-May-16 03:00N 38°39' W 009°24'4 7.1
2017-May-16 02:30N 38°39' W 009°20'611.0
2017-May-16 02:00N 38°41' W 009°13'510.6
2017-May-16 01:31N 38°41' W 009°06'2 4.4
2017-May-16 01:00N 38°41' W 009°04'0 0.0
2017-May-15 23:58N 38°41' W 009°04'0 0.0
2017-May-15 22:28N 38°41' W 009°04'0 0.0
2017-May-15 21:16N 38°41' W 009°04'0 0.0
2017-May-15 20:58N 38°41' W 009°04'0 0.0
2017-May-15 20:25N 38°41' W 009°04'0 0.0
2017-May-15 19:49N 38°41' W 009°04'0 0.0
2017-May-15 19:28N 38°41' W 009°04'0 0.0
2017-May-15 18:58N 38°41' W 009°04'0 0.0
2017-May-15 18:25N 38°41' W 009°04'0 0.0
2017-May-15 16:04N 38°41' W 009°04'0 0.0
2017-May-15 15:58N 38°41' W 009°04'0 0.0
2017-May-15 15:13N 38°41' W 009°04'0 0.0
2017-May-15 14:52N 38°41' W 009°04'0 0.0
2017-May-15 13:46N 38°41' W 009°04'0 0.0
2017-May-15 13:19N 38°41' W 009°04'0 0.0
2017-May-15 12:52N 38°41' W 009°04'0 0.0
2017-May-15 11:52N 38°41' W 009°04'0 0.0
2017-May-15 11:28N 38°41' W 009°04'0 0.0
2017-May-15 10:58N 38°41' W 009°04'0 0.0
2017-May-15 10:13N 38°41' W 009°04'0 0.0
2017-May-15 09:40N 38°41' W 009°04'0 0.0
2017-May-15 08:16N 38°41' W 009°04'0 0.0
2017-May-15 07:55N 38°41' W 009°04'0 0.0
2017-May-15 07:22N 38°41' W 009°04'0 0.0
2017-May-15 06:58N 38°41' W 009°04'0 0.0
2017-May-15 06:04N 38°41' W 009°04'0 0.0
2017-May-15 05:55N 38°41' W 009°04'0 0.0
2017-May-15 05:13N 38°41' W 009°04'0 0.0
2017-May-15 04:58N 38°41' W 009°04'0 0.0
2017-May-15 04:22N 38°41' W 009°04'0 0.0
2017-May-15 03:55N 38°41' W 009°04'0 0.0
2017-May-15 03:28N 38°41' W 009°04'1 1.4
2017-May-15 03:00N 38°41' W 009°04'4 7.6
2017-May-15 02:30N 38°41' W 009°09'612.8
2017-May-15 02:00N 38°41' W 009°17'612.6
2017-May-15 01:30N 38°37' W 009°24'5 9.3
2017-May-15 01:01N 38°37' W 009°30'612.0
2017-May-15 00:31N 38°35' W 009°37'612.0
2017-May-15 00:01N 38°34' W 009°44'611.8
2017-May-14 23:31N 38°34' W 009°52'612.2
2017-May-14 23:01N 38°34' W 009°60'612.1
2017-May-14 22:30N 38°34' W 010°08'611.7
2017-May-14 22:00N 38°39' W 010°11'612.4
2017-May-14 21:30N 38°45' W 010°11'712.7
2017-May-14 20:59N 38°52' W 010°11'713.6
2017-May-14 20:30N 38°58' W 010°10'613.0
2017-May-14 20:01N 39°05' W 010°08'713.2
2017-May-14 19:31N 39°11' W 010°07'612.6
2017-May-14 19:01N 39°18' W 010°06'712.6
2017-May-14 18:29N 39°24' W 010°06'  
Track history (hours):
 
Tides and Currents Weather Stations Pressure Air Temp Water Temp Dewpoint Dewpoint Depression Visibility Wind Speed Wind Dir Waves Ship Positions

Defne-s

Last reported at 2017-May-24 13:00 UTC. Time now 2017-May-24 13:22 UTC.
Position N 51°53' E 004°18'.

Length 109 m; draft 6.7 m.

Type: Ship (hazmat cat B). MMSI: 271002639.

Date/timePositionNaut miles runAvg speedWind from/ knotsBaromVisibWave heightAir tempDewpointWater temp
2017-May-24 13:00N 51°53' E 004°18'0 0.0
2017-May-24 12:30N 51°53' E 004°18'0 0.0
2017-May-24 12:00N 51°53' E 004°18'0 0.0
2017-May-24 11:30N 51°53' E 004°18'0 0.0
2017-May-24 11:00N 51°53' E 004°18'0 0.0
2017-May-24 10:30N 51°53' E 004°18'0 0.0
2017-May-24 10:00N 51°53' E 004°18'0 0.0
2017-May-24 09:30N 51°53' E 004°18'0 0.6
2017-May-24 09:01N 51°53' E 004°18'3 6.8
2017-May-24 08:30N 51°55' E 004°14'510.6
2017-May-24 08:00N 51°58' E 004°07'510.9
2017-May-24 07:30N 51°60' E 003°59'611.4
2017-May-24 07:00N 51°60' E 003°50'4 7.8
2017-May-24 06:30N 51°56' E 003°47'0 0.1
2017-May-24 05:59N 51°56' E 003°47'0 0.1
2017-May-24 05:29N 51°56' E 003°47'0 0.2
2017-May-24 04:50N 51°56' E 003°47'0 0.1
2017-May-24 04:26N 51°56' E 003°47'0 0.1
2017-May-24 03:59N 51°56' E 003°47'0 0.0
2017-May-24 03:25N 51°56' E 003°47'0 0.0
2017-May-24 02:59N 51°56' E 003°47'0 0.0
2017-May-24 02:20N 51°56' E 003°47'0 0.0
2017-May-24 01:53N 51°56' E 003°47'0 0.0
2017-May-24 01:29N 51°56' E 003°47'0 0.0
2017-May-24 00:59N 51°56' E 003°47'0 0.1
2017-May-24 00:29N 51°56' E 003°47'0 0.0
2017-May-23 23:56N 51°56' E 003°47'0 0.0
2017-May-23 23:29N 51°56' E 003°47'0 0.0
2017-May-23 22:56N 51°56' E 003°47'0 0.2
2017-May-23 22:25N 51°56' E 003°47'0 0.1
2017-May-23 21:59N 51°56' E 003°47'0 0.1
2017-May-23 21:29N 51°56' E 003°47'0 0.1
2017-May-23 20:59N 51°56' E 003°47'0 0.0
2017-May-23 20:29N 51°56' E 003°47'0 0.1
2017-May-23 19:59N 51°56' E 003°47'0 0.0
2017-May-23 19:28N 51°56' E 003°47'0 0.0
2017-May-23 18:56N 51°56' E 003°47'0 0.0
2017-May-23 18:29N 51°56' E 003°47'0 0.0
2017-May-23 18:00N 51°56' E 003°47'0 0.0
2017-May-23 17:30N 51°56' E 003°47'0 0.5
2017-May-23 17:01N 51°56' E 003°47'5 9.4
2017-May-23 16:31N 51°57' E 003°39'612.3
2017-May-23 16:00N 51°56' E 003°29'612.4
2017-May-23 15:30N 51°55' E 003°19'812.1
2017-May-23 14:53N 51°53' E 003°08'3912.8
2017-May-23 11:47N 51°30' E 002°15'414.1
2017-May-23 11:30N 51°27' E 002°12'713.6
2017-May-23 11:00N 51°21' E 002°08'612.9
2017-May-23 10:31N 51°14' E 002°05'714.8
2017-May-23 10:00N 51°11' E 001°55'815.1
2017-May-23 09:31N 51°07' E 001°45'815.5
2017-May-23 09:01N 51°01' E 001°36'815.4
2017-May-23 08:31N 50°55' E 001°30'814.8
2017-May-23 07:59N 50°47' E 001°26'4313.1
2017-May-23 04:42N 50°24' E 000°29'313.8
2017-May-23 04:30N 50°24' E 000°25'713.5
2017-May-23 04:00N 50°22' E 000°14'613.2
2017-May-23 03:31N 50°20' E 000°05'612.7
2017-May-23 03:01N 50°18' W 000°05'612.3
2017-May-23 02:31N 50°16' W 000°14'612.0
2017-May-23 02:01N 50°15' W 000°23'611.6
2017-May-23 01:31N 50°13' W 000°32'611.4
2017-May-23 01:00N 50°11' W 000°40'510.9
2017-May-23 00:31N 50°10' W 000°49'610.5
2017-May-22 23:57N 50°08' W 000°57'510.2
2017-May-22 23:28N 50°07' W 001°05'510.2
2017-May-22 22:59N 50°06' W 001°12'510.4
2017-May-22 22:29N 50°04' W 001°20'510.4
2017-May-22 21:59N 50°03' W 001°28'610.9
2017-May-22 21:27N 50°02' W 001°36'511.6
2017-May-22 21:00N 50°00' W 001°44'612.1
2017-May-22 20:30N 49°58' W 001°53'612.6
2017-May-22 20:01N 49°56' W 002°02'813.7
2017-May-22 19:27N 49°54' W 002°14'1414.0
2017-May-22 18:29N 49°51' W 002°34'714.3
2017-May-22 18:00N 49°49' W 002°44'714.3
2017-May-22 17:30N 49°46' W 002°55'714.3
2017-May-22 17:00N 49°43' W 003°04'714.3
2017-May-22 16:30N 49°39' W 003°14'714.2
2017-May-22 16:00N 49°36' W 003°23'714.1
2017-May-22 15:30N 49°33' W 003°33'1114.2
2017-May-22 14:45N 49°27' W 003°47'1414.0
2017-May-22 13:47N 49°20' W 004°05'613.9
2017-May-22 13:23N 49°18' W 004°13'514.1
2017-May-22 13:00N 49°15' W 004°20'713.9
2017-May-22 12:30N 49°11' W 004°29'713.8
2017-May-22 12:00N 49°08' W 004°38'913.7
2017-May-22 11:20N 49°04' W 004°51'813.4
2017-May-22 10:45N 48°60' W 005°01'513.3
2017-May-22 10:24N 48°57' W 005°07'513.4
2017-May-22 10:00N 48°55' W 005°14'612.9
2017-May-22 09:30N 48°52' W 005°22'712.9
2017-May-22 08:56N 48°48' W 005°32'512.1
2017-May-22 08:29N 48°44' W 005°38'4710.9
2017-May-22 04:11N 47°59' W 005°20'212.0
2017-May-22 04:00N 47°57' W 005°19'611.9
2017-May-22 03:30N 47°53' W 005°12'612.1
2017-May-22 03:00N 47°50' W 005°04'612.4
2017-May-22 02:30N 47°48' W 004°55'612.6
2017-May-22 02:00N 47°45' W 004°47'612.5
2017-May-22 01:30N 47°42' W 004°39'612.8
2017-May-22 01:00N 47°39' W 004°31'712.9
2017-May-22 00:30N 47°35' W 004°22'612.8
2017-May-22 00:00N 47°32' W 004°14'612.7
2017-May-21 23:30N 47°30' W 004°05'612.9
2017-May-21 23:01N 47°27' W 003°57'612.7
2017-May-21 22:30N 47°24' W 003°49'612.5
2017-May-21 22:00N 47°21' W 003°40'612.5
2017-May-21 21:30N 47°18' W 003°32'612.5
2017-May-21 21:00N 47°15' W 003°24'612.6
2017-May-21 20:30N 47°12' W 003°16'612.6
2017-May-21 20:00N 47°09' W 003°08'612.4
2017-May-21 19:30N 47°07' W 002°59'612.6
2017-May-21 19:00N 47°04' W 002°51'612.8
2017-May-21 18:30N 47°01' W 002°43'611.8
2017-May-21 18:00N 47°02' W 002°34'612.6
2017-May-21 17:30N 47°05' W 002°26'611.6
2017-May-21 17:00N 47°09' W 002°20'612.6
2017-May-21 16:31N 47°14' W 002°15'612.9
2017-May-21 16:00N 47°18' W 002°08'0 0.8
2017-May-21 15:30N 47°18' W 002°07'0 0.0
2017-May-21 15:00N 47°18' W 002°07'0 0.0
2017-May-21 14:30N 47°18' W 002°07'0 0.0
2017-May-21 13:30N 47°18' W 002°07'0 0.0
2017-May-21 13:00N 47°18' W 002°07'0 0.0
2017-May-21 12:30N 47°18' W 002°07'0 0.0
2017-May-21 11:54N 47°18' W 002°07'0 0.0
2017-May-21 11:24N 47°18' W 002°07'0 0.0
2017-May-21 11:00N 47°18' W 002°07'0 0.0
2017-May-21 10:30N 47°18' W 002°07'0 0.0
2017-May-21 09:57N 47°18' W 002°07'0 0.0
2017-May-21 09:30N 47°18' W 002°07'0 0.0
2017-May-21 09:00N 47°18' W 002°07'0 0.0
2017-May-21 08:27N 47°18' W 002°07'0 0.0
2017-May-21 08:00N 47°18' W 002°07'0 0.0
2017-May-21 07:30N 47°18' W 002°07'0 0.0
2017-May-21 07:00N 47°18' W 002°07'0 0.0
2017-May-21 06:30N 47°18' W 002°07'0 0.0
2017-May-21 06:00N 47°18' W 002°07'0 0.0
2017-May-21 05:30N 47°18' W 002°07'0 0.0
2017-May-21 05:00N 47°18' W 002°07'0 0.0
2017-May-21 04:30N 47°18' W 002°07'0 0.0
2017-May-21 04:00N 47°18' W 002°07'0 0.0
2017-May-21 03:30N 47°18' W 002°07'0 0.0
2017-May-21 03:00N 47°18' W 002°07'0 0.0
2017-May-21 02:30N 47°18' W 002°07'0 0.0
2017-May-21 01:57N 47°18' W 002°07'0 0.0
2017-May-21 01:30N 47°18' W 002°07'0 0.0
2017-May-21 01:00N 47°18' W 002°07'0 0.0
2017-May-21 00:30N 47°18' W 002°07'0 0.0
2017-May-21 00:00N 47°18' W 002°07'0 0.0
2017-May-20 23:30N 47°18' W 002°07'0 0.0
2017-May-20 23:00N 47°18' W 002°07'0 0.0
2017-May-20 22:30N 47°18' W 002°07'0 0.0
2017-May-20 22:00N 47°18' W 002°07'0 0.0
2017-May-20 21:30N 47°18' W 002°07'0 0.0
2017-May-20 21:00N 47°18' W 002°07'0 0.0
2017-May-20 20:30N 47°18' W 002°07'0 0.0
2017-May-20 20:00N 47°18' W 002°07'0 0.0
2017-May-20 19:30N 47°18' W 002°07'0 0.0
2017-May-20 18:57N 47°18' W 002°07'0 0.0
2017-May-20 18:30N 47°18' W 002°07'0 0.0
2017-May-20 18:00N 47°18' W 002°07'0 0.0
2017-May-20 17:27N 47°18' W 002°07'0 0.0
2017-May-20 16:57N 47°18' W 002°07'0 0.0
2017-May-20 16:30N 47°18' W 002°07'0 0.0
2017-May-20 16:00N 47°18' W 002°07'0 0.0
2017-May-20 15:30N 47°18' W 002°07'0 0.0
2017-May-20 14:57N 47°18' W 002°07'0 0.0
2017-May-20 13:57N 47°18' W 002°07'0 0.0
2017-May-20 13:30N 47°18' W 002°07'0 0.0
2017-May-20 13:00N 47°18' W 002°07'2 4.7
2017-May-20 12:30N 47°17' W 002°10'611.3
2017-May-20 12:00N 47°13' W 002°16'612.0
2017-May-20 11:30N 47°08' W 002°20'4 7.4
2017-May-20 11:00N 47°09' W 002°26'0 0.7
2017-May-20 10:23N 47°09' W 002°27'0 0.0
2017-May-20 09:57N 47°09' W 002°27'0 0.0
2017-May-20 09:29N 47°09' W 002°27'0 0.0
2017-May-20 08:59N 47°09' W 002°27'0 0.0
2017-May-20 08:30N 47°09' W 002°27'0 0.0
2017-May-20 08:00N 47°09' W 002°27'0 0.0
2017-May-20 07:30N 47°09' W 002°27'0 0.0
2017-May-20 07:00N 47°09' W 002°27'0 0.0
2017-May-20 06:30N 47°09' W 002°27'0 0.0
2017-May-20 06:00N 47°09' W 002°27'0 0.0
2017-May-20 05:30N 47°09' W 002°27'0 0.0
2017-May-20 05:00N 47°09' W 002°27'0 0.0
2017-May-20 04:30N 47°09' W 002°27'0 0.0
2017-May-20 03:59N 47°09' W 002°27'0 0.1
2017-May-20 03:26N 47°09' W 002°27'0 0.1
2017-May-20 02:59N 47°09' W 002°27'0 0.1
2017-May-20 02:29N 47°09' W 002°27'0 0.1
2017-May-20 01:59N 47°09' W 002°27'0 0.0
2017-May-20 01:29N 47°09' W 002°27'0 0.0
2017-May-20 00:59N 47°09' W 002°27'0 0.0
2017-May-20 00:29N 47°09' W 002°27'0 0.0
2017-May-19 23:59N 47°09' W 002°27'0 0.0
2017-May-19 23:29N 47°09' W 002°27'0 0.0
2017-May-19 22:59N 47°09' W 002°27'0 0.0
2017-May-19 22:29N 47°09' W 002°27'0 0.0
2017-May-19 21:56N 47°09' W 002°27'0 0.0
2017-May-19 21:26N 47°09' W 002°27'0 0.0
2017-May-19 21:00N 47°09' W 002°27'0 0.0
2017-May-19 20:29N 47°09' W 002°27'0 0.0
2017-May-19 19:59N 47°09' W 002°27'0 0.0
2017-May-19 19:27N 47°09' W 002°27'0 0.0
2017-May-19 18:57N 47°09' W 002°27'0 0.0
2017-May-19 18:26N 47°09' W 002°27'0 0.0
2017-May-19 18:00N 47°09' W 002°27'0 0.0
2017-May-19 17:30N 47°09' W 002°27'0 0.0
2017-May-19 17:00N 47°09' W 002°27'0 0.1
2017-May-19 16:30N 47°09' W 002°27'0 0.0
2017-May-19 16:00N 47°09' W 002°27'0 0.0
2017-May-19 15:30N 47°09' W 002°27'0 0.0
2017-May-19 15:00N 47°09' W 002°27'0 0.0
2017-May-19 13:48N 47°09' W 002°27'0 0.0
2017-May-19 13:30N 47°09' W 002°27'0 0.0
2017-May-19 13:00N 47°09' W 002°27'0 0.0
2017-May-19 12:30N 47°09' W 002°27'0 0.0
2017-May-19 11:51N 47°09' W 002°27'0 0.0
2017-May-19 11:30N 47°09' W 002°27'0 0.0
2017-May-19 10:51N 47°09' W 002°27'0 0.0
2017-May-19 10:29N 47°09' W 002°27'0 0.0
2017-May-19 09:54N 47°09' W 002°27'0 0.0
2017-May-19 09:24N 47°09' W 002°27'0 0.0
2017-May-19 08:54N 47°09' W 002°27'0 0.0
2017-May-19 08:21N 47°09' W 002°27'0 0.1
2017-May-19 07:59N 47°09' W 002°27'0 0.0
2017-May-19 07:26N 47°09' W 002°27'0 0.0
2017-May-19 06:57N 47°09' W 002°27'0 0.0
2017-May-19 06:29N 47°09' W 002°27'0 0.0
2017-May-19 05:57N 47°09' W 002°27'0 0.0
2017-May-19 05:20N 47°09' W 002°27'0 0.0
2017-May-19 04:57N 47°09' W 002°27'0 0.0
2017-May-19 04:27N 47°09' W 002°27'0 0.0
2017-May-19 04:00N 47°09' W 002°27'0 0.0
2017-May-19 03:29N 47°09' W 002°27'0 0.1
2017-May-19 03:00N 47°09' W 002°27'0 0.1
2017-May-19 02:29N 47°09' W 002°27'3 6.1
2017-May-19 02:00N 47°06' W 002°27'612.5
2017-May-19 01:30N 47°01' W 002°33'  
2017-May-16 15:13N 40°34' W 008°51'1512.6
2017-May-16 14:00N 40°21' W 009°02'612.7
2017-May-16 13:30N 40°16' W 009°07'612.4
2017-May-16 12:59N 40°10' W 009°11'612.3
2017-May-16 12:30N 40°05' W 009°15'612.1
2017-May-16 11:59N 39°60' W 009°19'612.5
2017-May-16 11:30N 39°55' W 009°23'612.3
2017-May-16 11:00N 39°49' W 009°27'612.6
2017-May-16 10:30N 39°44' W 009°31'612.6
2017-May-16 10:00N 39°39' W 009°36'612.5
2017-May-16 09:30N 39°33' W 009°40'612.4
2017-May-16 09:01N 39°28' W 009°43'612.6
2017-May-16 08:30N 39°21' W 009°44'613.0
2017-May-16 08:00N 39°15' W 009°47'612.9
2017-May-16 07:30N 39°09' W 009°50'612.4
2017-May-16 07:00N 39°03' W 009°52'612.7
2017-May-16 06:30N 38°57' W 009°54'613.0
2017-May-16 06:00N 38°51' W 009°56'613.0
2017-May-16 05:30N 38°44' W 009°56'713.0
2017-May-16 05:00N 38°38' W 009°55'611.4
2017-May-16 04:30N 38°37' W 009°48'612.7
2017-May-16 04:00N 38°37' W 009°40'713.4
2017-May-16 03:30N 38°38' W 009°32'612.1
2017-May-16 03:00N 38°39' W 009°24'4 7.1
2017-May-16 02:30N 38°39' W 009°20'611.0
2017-May-16 02:00N 38°41' W 009°13'510.6
2017-May-16 01:31N 38°41' W 009°06'2 4.4
2017-May-16 01:00N 38°41' W 009°04'0 0.0
2017-May-15 23:58N 38°41' W 009°04'0 0.0
2017-May-15 22:28N 38°41' W 009°04'0 0.0
2017-May-15 21:16N 38°41' W 009°04'0 0.0
2017-May-15 20:58N 38°41' W 009°04'0 0.0
2017-May-15 20:25N 38°41' W 009°04'0 0.0
2017-May-15 19:49N 38°41' W 009°04'0 0.0
2017-May-15 19:28N 38°41' W 009°04'0 0.0
2017-May-15 18:58N 38°41' W 009°04'0 0.0
2017-May-15 18:25N 38°41' W 009°04'0 0.0
2017-May-15 16:04N 38°41' W 009°04'0 0.0
2017-May-15 15:58N 38°41' W 009°04'0 0.0
2017-May-15 15:13N 38°41' W 009°04'0 0.0
2017-May-15 14:52N 38°41' W 009°04'0 0.0
2017-May-15 13:46N 38°41' W 009°04'0 0.0
2017-May-15 13:19N 38°41' W 009°04'0 0.0
2017-May-15 12:52N 38°41' W 009°04'0 0.0
2017-May-15 11:52N 38°41' W 009°04'0 0.0
2017-May-15 11:28N 38°41' W 009°04'0 0.0
2017-May-15 10:58N 38°41' W 009°04'0 0.0
2017-May-15 10:13N 38°41' W 009°04'0 0.0
2017-May-15 09:40N 38°41' W 009°04'0 0.0
2017-May-15 08:16N 38°41' W 009°04'0 0.0
2017-May-15 07:55N 38°41' W 009°04'0 0.0
2017-May-15 07:22N 38°41' W 009°04'0 0.0
2017-May-15 06:58N 38°41' W 009°04'0 0.0
2017-May-15 06:04N 38°41' W 009°04'0 0.0
2017-May-15 05:55N 38°41' W 009°04'0 0.0
2017-May-15 05:13N 38°41' W 009°04'0 0.0
2017-May-15 04:58N 38°41' W 009°04'0 0.0
2017-May-15 04:22N 38°41' W 009°04'0 0.0
2017-May-15 03:55N 38°41' W 009°04'0 0.0
2017-May-15 03:28N 38°41' W 009°04'1 1.4
2017-May-15 03:00N 38°41' W 009°04'4 7.6
2017-May-15 02:30N 38°41' W 009°09'612.8
2017-May-15 02:00N 38°41' W 009°17'612.6
2017-May-15 01:30N 38°37' W 009°24'5 9.3
2017-May-15 01:01N 38°37' W 009°30'612.0
2017-May-15 00:31N 38°35' W 009°37'612.0
2017-May-15 00:01N 38°34' W 009°44'611.8
2017-May-14 23:31N 38°34' W 009°52'612.2
2017-May-14 23:01N 38°34' W 009°60'612.1
2017-May-14 22:30N 38°34' W 010°08'611.7
2017-May-14 22:00N 38°39' W 010°11'612.4
2017-May-14 21:30N 38°45' W 010°11'712.7
2017-May-14 20:59N 38°52' W 010°11'713.6
2017-May-14 20:30N 38°58' W 010°10'613.0
2017-May-14 20:01N 39°05' W 010°08'713.2
2017-May-14 19:31N 39°11' W 010°07'612.6
2017-May-14 19:01N 39°18' W 010°06'712.6
2017-May-14 18:29N 39°24' W 010°06'  

Dump ship's entire track history